createdAt,value
2023-05-21T00:00:27.754Z,10.91
2023-05-21T00:02:54.517Z,10.87
2023-05-21T00:05:21.652Z,10.82
2023-05-21T00:07:48.226Z,10.79
2023-05-21T00:10:14.906Z,10.78
2023-05-21T00:12:41.499Z,10.76
2023-05-21T00:15:08.917Z,10.73
2023-05-21T00:17:35.644Z,10.68
2023-05-21T00:20:03.339Z,10.66
2023-05-21T00:22:29.832Z,10.65
2023-05-21T00:24:56.675Z,10.63
2023-05-21T00:27:23.203Z,10.62
2023-05-21T00:29:49.896Z,10.58
2023-05-21T00:32:16.839Z,10.55
2023-05-21T00:34:43.289Z,10.53
2023-05-21T00:37:09.798Z,10.48
2023-05-21T00:39:36.388Z,10.45
2023-05-21T00:42:02.889Z,10.41
2023-05-21T00:44:29.798Z,10.37
2023-05-21T00:46:56.570Z,10.32
2023-05-21T00:49:23.677Z,10.28
2023-05-21T00:51:50.498Z,10.25
2023-05-21T00:54:17.384Z,10.22
2023-05-21T00:56:45.022Z,10.18
2023-05-21T00:59:11.545Z,10.16
2023-05-21T01:01:38.100Z,10.15
2023-05-21T01:04:05.030Z,10.13
2023-05-21T01:06:31.495Z,10.09
2023-05-21T01:08:58.375Z,10.06
2023-05-21T01:11:37.691Z,10.02
2023-05-21T01:14:05.548Z,10.00
2023-05-21T01:16:32.508Z,9.99
2023-05-21T01:18:59.542Z,9.96
2023-05-21T01:21:29.480Z,9.91
2023-05-21T01:23:56.332Z,9.87
2023-05-21T01:26:23.122Z,9.81
2023-05-21T01:28:49.616Z,9.77
2023-05-21T01:31:33.317Z,9.74
2023-05-21T01:34:02.246Z,9.72
2023-05-21T01:36:38.593Z,9.70
2023-05-21T01:39:18.671Z,9.71
2023-05-21T01:41:46.159Z,9.75
2023-05-21T01:44:15.187Z,9.79
2023-05-21T01:46:41.782Z,9.79
2023-05-21T01:49:09.132Z,9.77
2023-05-21T01:51:36.865Z,9.75
2023-05-21T01:54:03.767Z,9.71
2023-05-21T01:56:30.525Z,9.70
2023-05-21T01:58:57.022Z,9.69
2023-05-21T02:01:23.555Z,9.68
2023-05-21T02:03:50.237Z,9.65
2023-05-21T02:06:16.874Z,9.63
2023-05-21T02:08:43.525Z,9.59
2023-05-21T02:11:10.057Z,9.54
2023-05-21T02:13:36.544Z,9.49
2023-05-21T02:16:03.244Z,9.46
2023-05-21T02:18:29.714Z,9.40
2023-05-21T02:20:56.181Z,9.38
2023-05-21T02:23:22.724Z,9.38
2023-05-21T02:25:49.220Z,9.41
2023-05-21T02:28:15.890Z,9.42
2023-05-21T02:30:42.374Z,9.38
2023-05-21T02:33:08.852Z,9.33
2023-05-21T02:35:35.507Z,9.32
2023-05-21T02:38:02.253Z,9.30
2023-05-21T02:40:29.015Z,9.27
2023-05-21T02:42:55.576Z,9.26
2023-05-21T02:45:22.087Z,9.27
2023-05-21T02:47:48.630Z,9.26
2023-05-21T02:50:15.393Z,9.23
2023-05-21T02:52:42.530Z,9.26
2023-05-21T02:55:09.666Z,9.29
2023-05-21T02:57:36.400Z,9.34
2023-05-21T03:00:03.221Z,9.41
2023-05-21T03:02:29.766Z,9.48
2023-05-21T03:04:56.717Z,9.56
2023-05-21T03:07:23.831Z,9.64
2023-05-21T03:09:50.544Z,9.72
2023-05-21T03:12:17.184Z,9.79
2023-05-21T03:14:43.687Z,9.87
2023-05-21T03:17:10.427Z,9.93
2023-05-21T03:19:37.099Z,10.01
2023-05-21T03:22:04.554Z,10.08
2023-05-21T03:24:31.591Z,10.16
2023-05-21T03:26:58.184Z,10.23
2023-05-21T03:29:25.242Z,10.30
2023-05-21T03:31:53.318Z,10.37
2023-05-21T03:34:20.119Z,10.45
2023-05-21T03:36:47.791Z,10.52
2023-05-21T03:39:14.884Z,10.55
2023-05-21T03:41:41.662Z,10.62
2023-05-21T03:44:08.959Z,10.69
2023-05-21T03:46:35.608Z,10.75
2023-05-21T03:49:02.447Z,10.78
2023-05-21T03:51:29.214Z,10.79
2023-05-21T03:53:58.348Z,10.83
2023-05-21T03:56:25.075Z,10.87
2023-05-21T03:58:52.095Z,10.93
2023-05-21T04:01:20.107Z,10.97
2023-05-21T04:03:46.934Z,11.05
2023-05-21T04:06:13.901Z,11.13
2023-05-21T04:08:40.454Z,11.20
2023-05-21T04:11:07.021Z,11.25
2023-05-21T04:13:33.655Z,11.28
2023-05-21T04:16:00.277Z,11.32
2023-05-21T04:18:26.923Z,11.38
2023-05-21T04:20:53.669Z,11.41
2023-05-21T04:23:20.170Z,11.48
2023-05-21T04:25:47.024Z,11.51
2023-05-21T04:28:13.543Z,11.57
2023-05-21T04:30:40.055Z,11.67
2023-05-21T04:33:06.801Z,11.78
2023-05-21T04:35:33.683Z,11.92
2023-05-21T04:38:02.274Z,12.03
2023-05-21T04:40:30.276Z,12.06
2023-05-21T04:42:56.880Z,12.05
2023-05-21T04:45:23.347Z,12.05
2023-05-21T04:47:50.003Z,12.14
2023-05-21T04:50:16.669Z,12.22
2023-05-21T04:52:43.167Z,12.26
2023-05-21T04:55:10.309Z,12.26
2023-05-21T04:57:37.303Z,12.34
2023-05-21T05:00:04.587Z,12.47
2023-05-21T05:02:31.063Z,12.57
2023-05-21T05:04:57.592Z,12.78
2023-05-21T05:07:24.036Z,12.96
2023-05-21T05:09:50.585Z,13.08
2023-05-21T05:12:17.201Z,13.20
2023-05-21T05:14:43.660Z,13.32
2023-05-21T05:17:10.175Z,13.41
2023-05-21T05:19:36.789Z,13.57
2023-05-21T05:22:03.474Z,13.65
2023-05-21T05:24:30.134Z,13.80
2023-05-21T05:26:56.849Z,13.92
2023-05-21T05:29:23.322Z,14.09
2023-05-21T05:31:49.860Z,14.28
2023-05-21T05:34:16.442Z,14.42
2023-05-21T05:36:43.196Z,14.57
2023-05-21T05:39:09.699Z,14.67
2023-05-21T05:41:36.372Z,14.76
2023-05-21T05:44:03.157Z,14.91
2023-05-21T05:46:29.695Z,14.95
2023-05-21T05:48:56.367Z,15.16
2023-05-21T05:51:22.821Z,15.39
2023-05-21T05:53:49.557Z,15.63
2023-05-21T05:56:16.065Z,15.85
2023-05-21T05:58:42.782Z,16.08
2023-05-21T06:01:09.279Z,16.21
2023-05-21T06:03:35.977Z,16.30
2023-05-21T06:06:02.883Z,16.41
2023-05-21T06:08:29.523Z,16.57
2023-05-21T06:10:56.047Z,16.37
2023-05-21T06:13:22.559Z,16.40
2023-05-21T06:15:49.124Z,16.52
2023-05-21T06:18:16.219Z,16.94
2023-05-21T06:20:42.693Z,17.46
2023-05-21T06:23:09.158Z,17.90
2023-05-21T06:25:36.151Z,18.14
2023-05-21T06:28:02.976Z,18.61
2023-05-21T06:30:29.414Z,18.86
2023-05-21T06:32:56.060Z,18.98
2023-05-21T06:35:23.357Z,19.37
2023-05-21T06:37:49.884Z,19.37
2023-05-21T06:40:16.464Z,19.83
2023-05-21T06:42:42.961Z,20.37
2023-05-21T06:45:10.124Z,20.77
2023-05-21T06:47:36.689Z,20.63
2023-05-21T06:50:03.859Z,20.51
2023-05-21T06:52:30.383Z,20.78
2023-05-21T06:54:56.942Z,20.77
2023-05-21T06:57:23.442Z,20.78
2023-05-21T06:59:50.032Z,21.02
2023-05-21T07:02:16.618Z,20.94
2023-05-21T07:04:43.224Z,21.17
2023-05-21T07:07:09.868Z,21.42
2023-05-21T07:09:36.366Z,21.37
2023-05-21T07:12:02.906Z,21.78
2023-05-21T07:14:29.390Z,22.00
2023-05-21T07:16:56.000Z,22.03
2023-05-21T07:19:22.645Z,22.23
2023-05-21T07:21:49.637Z,22.33
2023-05-21T07:24:16.153Z,22.29
2023-05-21T07:26:42.813Z,22.58
2023-05-21T07:29:09.280Z,22.56
2023-05-21T07:31:35.910Z,22.60
2023-05-21T07:34:02.635Z,22.68
2023-05-21T07:36:29.309Z,22.36
2023-05-21T07:38:55.998Z,22.35
2023-05-21T07:41:22.469Z,22.40
2023-05-21T07:43:49.473Z,22.65
2023-05-21T07:46:16.048Z,22.80
2023-05-21T07:48:42.616Z,23.02
2023-05-21T07:51:09.123Z,23.44
2023-05-21T07:53:35.794Z,23.81
2023-05-21T07:56:02.643Z,24.14
2023-05-21T07:58:29.127Z,24.60
2023-05-21T08:00:55.798Z,25.19
2023-05-21T08:03:22.502Z,25.46
2023-05-21T08:05:49.217Z,24.97
2023-05-21T08:08:16.633Z,24.55
2023-05-21T08:10:43.530Z,24.38
2023-05-21T08:13:11.913Z,24.41
2023-05-21T08:15:38.839Z,24.41
2023-05-21T08:18:05.649Z,24.23
2023-05-21T08:20:32.571Z,24.01
2023-05-21T08:22:59.877Z,24.01
2023-05-21T08:25:27.275Z,24.19
2023-05-21T08:27:54.518Z,24.12
2023-05-21T08:30:21.114Z,24.10
2023-05-21T08:32:48.856Z,24.28
2023-05-21T08:35:15.415Z,24.19
2023-05-21T08:37:42.154Z,24.08
2023-05-21T08:40:12.668Z,24.20
2023-05-21T08:42:47.339Z,24.05
2023-05-21T08:45:15.084Z,23.82
2023-05-21T08:47:43.530Z,23.73
2023-05-21T08:50:12.475Z,23.92
2023-05-21T08:52:39.200Z,24.10
2023-05-21T08:55:06.470Z,24.21
2023-05-21T08:57:33.166Z,24.16
2023-05-21T09:00:00.340Z,24.26
2023-05-21T09:02:27.304Z,24.45
2023-05-21T09:04:54.492Z,24.28
2023-05-21T09:07:21.264Z,24.30
2023-05-21T09:10:12.192Z,24.28
2023-05-21T09:12:38.697Z,24.25
2023-05-21T09:15:06.038Z,24.07
2023-05-21T09:17:32.592Z,24.04
2023-05-21T09:20:12.857Z,24.19
2023-05-21T09:22:50.073Z,24.25
2023-05-21T09:25:18.852Z,24.18
2023-05-21T09:27:45.394Z,24.17
2023-05-21T09:30:13.912Z,24.22
2023-05-21T09:32:41.559Z,24.21
2023-05-21T09:35:13.055Z,24.11
2023-05-21T09:37:44.320Z,24.16
2023-05-21T09:40:19.417Z,24.05
2023-05-21T09:42:49.085Z,24.19
2023-05-21T09:45:19.636Z,24.33
2023-05-21T09:47:47.900Z,24.39
2023-05-21T09:50:19.152Z,24.24
2023-05-21T09:52:45.993Z,24.25
2023-05-21T09:55:14.201Z,24.39
2023-05-21T09:57:45.456Z,24.58
2023-05-21T10:00:22.889Z,24.52
2023-05-21T10:02:57.417Z,24.50
2023-05-21T10:05:28.958Z,24.50
2023-05-21T10:08:03.111Z,24.46
2023-05-21T10:10:31.352Z,24.51
2023-05-21T10:13:06.295Z,24.69
2023-05-21T10:15:42.605Z,24.75
2023-05-21T10:18:10.953Z,24.56
2023-05-21T10:20:38.163Z,24.61
2023-05-21T10:23:06.116Z,24.68
2023-05-21T10:25:33.389Z,24.76
2023-05-21T10:28:00.268Z,24.93
2023-05-21T10:30:27.532Z,25.12
2023-05-21T10:32:56.096Z,25.19
2023-05-21T10:35:23.383Z,25.04
2023-05-21T10:37:51.553Z,24.62
2023-05-21T10:40:18.251Z,24.44
2023-05-21T10:42:50.560Z,24.52
2023-05-21T10:45:31.846Z,24.60
2023-05-21T10:48:36.570Z,24.76
2023-05-21T10:51:27.731Z,24.80
2023-05-21T10:54:00.159Z,24.86
2023-05-21T10:56:41.199Z,24.96
2023-05-21T10:59:26.007Z,24.83
2023-05-21T11:01:53.951Z,24.81
2023-05-21T11:04:26.871Z,24.79
2023-05-21T11:06:53.580Z,24.81
2023-05-21T11:09:20.468Z,24.67
2023-05-21T11:11:51.925Z,24.65
2023-05-21T11:14:38.196Z,24.86
2023-05-21T11:17:07.517Z,25.31
2023-05-21T11:19:35.996Z,25.73
2023-05-21T11:22:23.878Z,25.96
2023-05-21T11:24:51.628Z,26.06
2023-05-21T11:27:31.956Z,25.90
2023-05-21T11:29:58.453Z,25.94
2023-05-21T11:32:25.216Z,25.82
2023-05-21T11:34:51.756Z,25.74
2023-05-21T11:37:18.302Z,25.75
2023-05-21T11:39:45.485Z,25.88
2023-05-21T11:42:12.749Z,26.01
2023-05-21T11:44:43.712Z,25.94
2023-05-21T11:47:12.413Z,26.05
2023-05-21T11:49:39.603Z,26.13
2023-05-21T11:52:08.932Z,26.18
2023-05-21T11:54:42.594Z,26.22
2023-05-21T11:57:09.531Z,26.01
2023-05-21T11:59:36.844Z,25.82
2023-05-21T12:02:04.422Z,25.78
2023-05-21T12:04:34.898Z,25.49
2023-05-21T12:07:06.953Z,25.36
2023-05-21T12:09:44.830Z,25.26
2023-05-21T12:12:14.042Z,25.14
2023-05-21T12:14:44.667Z,25.22
2023-05-21T12:17:11.337Z,25.45
2023-05-21T12:19:38.439Z,25.46
2023-05-21T12:22:05.673Z,25.30
2023-05-21T12:24:33.636Z,25.20
2023-05-21T12:27:01.874Z,25.05
2023-05-21T12:29:32.444Z,24.97
2023-05-21T12:32:00.903Z,24.91
2023-05-21T12:34:48.252Z,24.89
2023-05-21T12:37:21.856Z,24.95
2023-05-21T12:39:50.178Z,24.88
2023-05-21T12:42:17.244Z,24.82
2023-05-21T12:44:46.592Z,24.81
2023-05-21T12:47:13.836Z,24.87
2023-05-21T12:49:42.656Z,25.03
2023-05-21T12:52:12.918Z,25.14
2023-05-21T12:54:40.496Z,25.20
2023-05-21T12:57:17.341Z,25.22
2023-05-21T12:59:46.571Z,25.39
2023-05-21T13:02:39.468Z,25.71
2023-05-21T13:05:10.857Z,26.23
2023-05-21T13:07:39.208Z,26.66
2023-05-21T13:10:06.809Z,26.99
2023-05-21T13:12:34.999Z,27.33
2023-05-21T13:15:03.269Z,27.54
2023-05-21T13:17:30.368Z,27.55
2023-05-21T13:20:10.418Z,27.85
2023-05-21T13:22:39.098Z,28.11
2023-05-21T13:25:07.235Z,28.33
2023-05-21T13:27:33.752Z,28.77
2023-05-21T13:30:00.933Z,29.07
2023-05-21T13:32:27.731Z,29.33
2023-05-21T13:34:54.715Z,29.19
2023-05-21T13:37:21.254Z,29.13
2023-05-21T13:39:47.861Z,29.46
2023-05-21T13:42:14.551Z,29.90
2023-05-21T13:44:41.367Z,30.16
2023-05-21T13:47:08.823Z,30.47
2023-05-21T13:49:35.548Z,30.45
2023-05-21T13:52:03.622Z,30.67
2023-05-21T13:54:30.572Z,30.96
2023-05-21T13:56:57.386Z,30.55
2023-05-21T13:59:23.986Z,30.66
2023-05-21T14:01:50.958Z,30.90
2023-05-21T14:04:18.951Z,30.97
2023-05-21T14:06:46.393Z,31.24
2023-05-21T14:09:13.785Z,31.43
2023-05-21T14:11:40.574Z,31.44
2023-05-21T14:14:07.779Z,31.16
2023-05-21T14:16:34.333Z,30.96
2023-05-21T14:19:01.061Z,30.92
2023-05-21T14:21:27.573Z,31.15
2023-05-21T14:23:54.261Z,31.10
2023-05-21T14:26:20.759Z,31.25
2023-05-21T14:28:47.211Z,30.90
2023-05-21T14:31:14.969Z,30.46
2023-05-21T14:33:41.480Z,30.67
2023-05-21T14:36:08.113Z,31.23
2023-05-21T14:38:34.565Z,31.50
2023-05-21T14:41:01.076Z,31.22
2023-05-21T14:43:27.518Z,31.06
2023-05-21T14:45:54.056Z,30.49
2023-05-21T14:48:20.936Z,29.60
2023-05-21T14:50:47.589Z,28.55
2023-05-21T14:53:14.108Z,27.73
2023-05-21T14:55:40.837Z,27.16
2023-05-21T14:58:07.799Z,26.77
2023-05-21T15:00:35.749Z,26.42
2023-05-21T15:03:03.304Z,25.91
2023-05-21T15:05:29.916Z,25.51
2023-05-21T15:07:57.546Z,25.26
2023-05-21T15:10:25.711Z,25.03
2023-05-21T15:12:52.925Z,24.79
2023-05-21T15:15:20.382Z,24.78
2023-05-21T15:17:48.075Z,24.80
2023-05-21T15:20:15.000Z,24.75
2023-05-21T15:22:41.736Z,24.64
2023-05-21T15:25:09.283Z,24.49
2023-05-21T15:27:35.861Z,24.60
2023-05-21T15:30:02.613Z,25.17
2023-05-21T15:32:29.353Z,26.23
2023-05-21T15:34:56.114Z,27.41
2023-05-21T15:37:22.765Z,28.27
2023-05-21T15:39:49.353Z,28.92
2023-05-21T15:42:16.017Z,29.52
2023-05-21T15:44:42.526Z,29.67
2023-05-21T15:47:09.413Z,29.80
2023-05-21T15:49:35.976Z,30.32
2023-05-21T15:52:02.499Z,30.75
2023-05-21T15:54:29.936Z,30.88
2023-05-21T15:56:56.753Z,30.82
2023-05-21T15:59:23.450Z,30.89
2023-05-21T16:01:49.960Z,31.11
2023-05-21T16:04:16.568Z,30.78
2023-05-21T16:06:43.541Z,30.42
2023-05-21T16:09:10.085Z,30.42
2023-05-21T16:11:36.730Z,30.61
2023-05-21T16:14:03.319Z,30.69
2023-05-21T16:16:30.061Z,30.46
2023-05-21T16:18:56.585Z,30.36
2023-05-21T16:21:23.844Z,30.50
2023-05-21T16:23:50.510Z,30.70
2023-05-21T16:26:17.021Z,30.66
2023-05-21T16:28:43.774Z,29.69
2023-05-21T16:31:10.274Z,28.64
2023-05-21T16:33:36.758Z,27.63
2023-05-21T16:36:03.427Z,26.65
2023-05-21T16:38:29.947Z,25.88
2023-05-21T16:40:56.622Z,25.35
2023-05-21T16:43:23.144Z,25.28
2023-05-21T16:45:49.696Z,25.93
2023-05-21T16:48:16.149Z,26.59
2023-05-21T16:50:42.929Z,26.97
2023-05-21T16:53:09.654Z,27.13
2023-05-21T16:55:38.000Z,26.99
2023-05-21T16:58:06.238Z,27.13
2023-05-21T17:00:34.268Z,27.35
2023-05-21T17:03:00.890Z,27.32
2023-05-21T17:05:27.815Z,27.35
2023-05-21T17:07:54.294Z,26.72
2023-05-21T17:10:21.211Z,25.92
2023-05-21T17:12:47.828Z,25.84
2023-05-21T17:15:14.337Z,26.14
2023-05-21T17:17:40.838Z,26.12
2023-05-21T17:20:08.159Z,25.87
2023-05-21T17:22:34.815Z,25.01
2023-05-21T17:25:01.314Z,24.36
2023-05-21T17:27:27.852Z,23.75
2023-05-21T17:29:54.417Z,23.26
2023-05-21T17:32:20.874Z,22.81
2023-05-21T17:34:47.579Z,22.50
2023-05-21T17:37:14.227Z,22.24
2023-05-21T17:39:41.307Z,22.13
2023-05-21T17:42:07.834Z,22.20
2023-05-21T17:44:34.342Z,22.33
2023-05-21T17:47:00.917Z,22.41
2023-05-21T17:49:27.452Z,22.43
2023-05-21T17:51:54.423Z,22.39
2023-05-21T17:54:20.910Z,22.20
2023-05-21T17:56:47.455Z,21.91
2023-05-21T17:59:14.267Z,21.56
2023-05-21T18:01:41.067Z,21.18
2023-05-21T18:04:08.083Z,20.80
2023-05-21T18:06:34.549Z,20.44
2023-05-21T18:09:01.128Z,20.10
2023-05-21T18:11:27.648Z,19.78
2023-05-21T18:13:54.344Z,19.48
2023-05-21T18:16:21.024Z,19.19
2023-05-21T18:18:47.835Z,18.92
2023-05-21T18:21:14.493Z,18.64
2023-05-21T18:23:40.956Z,18.39
2023-05-21T18:26:07.463Z,18.15
2023-05-21T18:28:33.989Z,17.92
2023-05-21T18:31:00.459Z,17.74
2023-05-21T18:33:27.415Z,17.57
2023-05-21T18:35:54.547Z,17.40
2023-05-21T18:38:21.849Z,17.22
2023-05-21T18:40:50.438Z,17.07
2023-05-21T18:43:17.781Z,16.93
2023-05-21T18:45:45.173Z,16.79
2023-05-21T18:48:11.919Z,16.67
2023-05-21T18:50:39.334Z,16.53
2023-05-21T18:53:06.168Z,16.41
2023-05-21T18:55:34.464Z,16.33
2023-05-21T18:58:01.182Z,16.22
2023-05-21T19:00:27.725Z,16.12
2023-05-21T19:02:55.625Z,16.00
2023-05-21T19:05:22.435Z,15.92
2023-05-21T19:07:49.112Z,15.84
2023-05-21T19:10:15.624Z,15.74
2023-05-21T19:12:43.192Z,15.65
2023-05-21T19:15:10.509Z,15.57
2023-05-21T19:17:37.408Z,15.48
2023-05-21T19:20:04.523Z,15.38
2023-05-21T19:22:31.437Z,15.31
2023-05-21T19:24:58.127Z,15.23
2023-05-21T19:27:24.653Z,15.17
2023-05-21T19:29:51.134Z,15.08
2023-05-21T19:32:17.746Z,15.00
2023-05-21T19:34:44.576Z,14.87
2023-05-21T19:37:11.209Z,14.77
2023-05-21T19:39:38.814Z,14.71
2023-05-21T19:42:06.296Z,14.65
2023-05-21T19:44:33.175Z,14.61
2023-05-21T19:47:01.038Z,14.53
2023-05-21T19:49:28.026Z,14.43
2023-05-21T19:51:55.270Z,14.35
2023-05-21T19:54:23.027Z,14.24
2023-05-21T19:56:50.357Z,14.16
2023-05-21T19:59:17.882Z,14.06
2023-05-21T20:01:44.771Z,13.96
2023-05-21T20:04:12.387Z,13.85
2023-05-21T20:06:39.204Z,13.77
2023-05-21T20:09:06.503Z,13.71
2023-05-21T20:11:33.626Z,13.66
2023-05-21T20:14:00.130Z,13.62
2023-05-21T20:16:26.674Z,13.56
2023-05-21T20:18:53.291Z,13.51
2023-05-21T20:21:19.896Z,13.47
2023-05-21T20:23:46.954Z,13.43
2023-05-21T20:26:14.472Z,13.40
2023-05-21T20:28:41.706Z,13.38
2023-05-21T20:31:08.567Z,13.36
2023-05-21T20:33:37.123Z,13.34
2023-05-21T20:36:04.670Z,13.32
2023-05-21T20:38:31.095Z,13.26
2023-05-21T20:40:57.615Z,13.16
2023-05-21T20:43:24.142Z,13.08
2023-05-21T20:45:51.133Z,12.98
2023-05-21T20:48:17.657Z,12.84
2023-05-21T20:50:44.205Z,12.76
2023-05-21T20:53:11.203Z,12.66
2023-05-21T20:55:38.457Z,12.55
2023-05-21T20:58:05.371Z,12.45
2023-05-21T21:00:32.143Z,12.35
2023-05-21T21:02:59.352Z,12.28
2023-05-21T21:05:25.969Z,12.29
2023-05-21T21:07:55.462Z,12.31
2023-05-21T21:10:22.677Z,12.25
2023-05-21T21:12:49.381Z,12.17
2023-05-21T21:15:16.030Z,12.10
2023-05-21T21:17:42.606Z,12.07
2023-05-21T21:20:09.369Z,12.03
2023-05-21T21:22:35.833Z,11.99
2023-05-21T21:25:02.356Z,11.92
2023-05-21T21:27:28.881Z,11.84
2023-05-21T21:29:55.321Z,11.74
2023-05-21T21:32:21.876Z,11.64
2023-05-21T21:34:48.850Z,11.56
2023-05-21T21:37:16.383Z,11.49
2023-05-21T21:39:43.177Z,11.43
2023-05-21T21:42:09.710Z,11.37
2023-05-21T21:44:36.162Z,11.31
2023-05-21T21:47:02.734Z,11.27
2023-05-21T21:49:29.288Z,11.23
2023-05-21T21:51:55.775Z,11.17
2023-05-21T21:54:22.324Z,11.13
2023-05-21T21:56:49.186Z,11.10
2023-05-21T21:59:15.698Z,11.04
2023-05-21T22:01:43.085Z,10.97
2023-05-21T22:04:09.714Z,10.88
2023-05-21T22:06:36.333Z,10.80
2023-05-21T22:09:02.895Z,10.71
2023-05-21T22:11:29.653Z,10.64
2023-05-21T22:13:56.212Z,10.57
2023-05-21T22:16:22.930Z,10.47
2023-05-21T22:18:49.579Z,10.38
2023-05-21T22:21:16.038Z,10.29
2023-05-21T22:23:42.939Z,10.24
2023-05-21T22:26:10.010Z,10.19
2023-05-21T22:28:36.579Z,10.13
2023-05-21T22:31:03.699Z,10.08
2023-05-21T22:33:30.434Z,10.03
2023-05-21T22:35:57.214Z,9.97
2023-05-21T22:38:24.969Z,9.92
2023-05-21T22:40:51.641Z,9.88
2023-05-21T22:43:18.518Z,9.84
2023-05-21T22:45:45.187Z,9.82
2023-05-21T22:48:11.787Z,9.80
2023-05-21T22:50:38.884Z,9.76
2023-05-21T22:53:07.089Z,9.70
2023-05-21T22:55:33.807Z,9.63
2023-05-21T22:58:00.332Z,9.56
2023-05-21T23:00:27.739Z,9.47
2023-05-21T23:02:54.901Z,9.40
2023-05-21T23:05:21.996Z,9.33
2023-05-21T23:07:48.778Z,9.26
2023-05-21T23:10:15.291Z,9.20
2023-05-21T23:12:41.807Z,9.17
2023-05-21T23:15:08.919Z,9.15
2023-05-21T23:17:35.385Z,9.11
2023-05-21T23:20:02.038Z,9.04
2023-05-21T23:22:28.578Z,8.96
2023-05-21T23:24:55.079Z,8.89
2023-05-21T23:27:21.530Z,8.82
2023-05-21T23:29:48.158Z,8.76
2023-05-21T23:32:15.329Z,8.66
2023-05-21T23:34:41.857Z,8.57
2023-05-21T23:37:08.625Z,8.47
2023-05-21T23:39:35.395Z,8.41
2023-05-21T23:42:02.281Z,8.37
2023-05-21T23:44:28.917Z,8.35
2023-05-21T23:46:55.420Z,8.30
2023-05-21T23:49:22.085Z,8.22
2023-05-21T23:51:49.020Z,8.15
2023-05-21T23:54:15.515Z,8.12
2023-05-21T23:56:42.006Z,8.10
2023-05-21T23:59:08.698Z,8.09
